createdAt,value
2018-03-20T05:36:12.835Z,-0.70
2018-03-20T05:38:45.044Z,-0.70
2018-03-20T05:41:16.915Z,-0.70
2018-03-20T05:43:48.803Z,-0.70
2018-03-20T05:46:20.671Z,-0.70
2018-03-20T05:48:52.555Z,-0.70
2018-03-20T05:51:24.427Z,-0.70
2018-03-20T05:53:57.087Z,-0.70
2018-03-20T05:56:30.575Z,-0.70
2018-03-20T05:59:02.451Z,-0.80
2018-03-20T06:01:34.335Z,-0.80
2018-03-20T06:04:06.223Z,-0.80
2018-03-20T06:06:38.111Z,-0.90
2018-03-20T06:09:10.014Z,-0.90
2018-03-20T06:11:42.900Z,-1.00
2018-03-20T06:14:14.791Z,-1.00
2018-03-20T06:16:46.667Z,-1.00
2018-03-20T06:19:18.556Z,-1.00
2018-03-20T06:21:51.420Z,-1.00
2018-03-20T06:24:23.304Z,-1.00
2018-03-20T06:26:55.938Z,-0.90
2018-03-20T06:29:27.842Z,-0.90
2018-03-20T06:32:00.743Z,-0.90
2018-03-20T06:34:32.911Z,-0.90
2018-03-20T06:37:04.791Z,-0.90
2018-03-20T06:39:36.939Z,-0.90
2018-03-20T06:42:08.828Z,-0.90
2018-03-20T06:44:40.707Z,-0.80
2018-03-20T06:47:12.590Z,-0.80
2018-03-20T06:49:44.476Z,-0.80
2018-03-20T06:52:17.112Z,-0.80
2018-03-20T06:54:48.996Z,-0.80
2018-03-20T06:57:21.655Z,-0.70
2018-03-20T06:59:53.540Z,-0.70
2018-03-20T07:02:26.181Z,-0.70
2018-03-20T07:04:58.075Z,-0.80
2018-03-20T07:07:30.711Z,-0.70
2018-03-20T07:10:02.839Z,-0.70
2018-03-20T07:12:34.722Z,-0.60
2018-03-20T07:15:06.865Z,-0.60
2018-03-20T07:17:38.748Z,-0.60
2018-03-20T07:20:10.656Z,-0.50
2018-03-20T07:22:42.533Z,-0.50
2018-03-20T07:25:15.195Z,-0.40
2018-03-20T07:27:47.068Z,-0.40
2018-03-20T07:30:19.724Z,-0.30
2018-03-20T07:32:51.591Z,-0.40
2018-03-20T07:35:24.297Z,-0.20
2018-03-20T07:37:56.497Z,-0.20
2018-03-20T07:40:28.379Z,-0.10
2018-03-20T07:43:00.247Z,-0.10
2018-03-20T07:45:32.135Z,0.00
2018-03-20T07:48:04.774Z,0.30
2018-03-20T07:50:36.886Z,0.30
2018-03-20T07:53:08.792Z,0.40
2018-03-20T07:55:40.675Z,0.50
2018-03-20T07:58:12.550Z,0.50
2018-03-20T08:00:45.203Z,0.60
2018-03-20T08:03:17.084Z,0.60
2018-03-20T08:05:49.020Z,0.70
2018-03-20T08:08:20.839Z,0.70
2018-03-20T08:10:52.723Z,0.90
2018-03-20T08:13:24.603Z,1.00
2018-03-20T08:15:56.495Z,1.00
2018-03-20T08:18:29.137Z,1.10
2018-03-20T08:21:01.015Z,1.00
2018-03-20T08:23:32.887Z,1.00
2018-03-20T08:26:05.552Z,1.10
2018-03-20T08:28:37.440Z,1.10
2018-03-20T08:31:10.095Z,1.00
2018-03-20T08:33:41.967Z,1.00
2018-03-20T08:36:14.619Z,1.00
2018-03-20T08:38:46.495Z,0.90
2018-03-20T08:41:19.171Z,0.80
2018-03-20T08:43:51.064Z,0.80
2018-03-20T08:46:22.955Z,0.80
2018-03-20T08:48:54.832Z,0.80
2018-03-20T08:51:26.780Z,0.80
2018-03-20T08:53:59.420Z,0.90
2018-03-20T08:56:31.320Z,0.90
2018-03-20T08:59:03.605Z,1.10
2018-03-20T09:01:35.448Z,1.30
2018-03-20T09:04:07.311Z,1.30
2018-03-20T09:06:39.199Z,1.40
2018-03-20T09:09:11.077Z,1.60
2018-03-20T09:11:43.972Z,1.90
2018-03-20T09:14:15.840Z,1.90
2018-03-20T09:16:47.760Z,2.00
2018-03-20T09:19:19.627Z,2.20
2018-03-20T09:21:51.534Z,2.40
2018-03-20T09:24:23.404Z,2.70
2018-03-20T09:26:55.351Z,2.90
2018-03-20T09:29:27.215Z,3.10
2018-03-20T09:31:59.111Z,3.00
2018-03-20T09:34:30.989Z,3.10
2018-03-20T09:37:03.653Z,3.30
2018-03-20T09:39:35.526Z,3.20
2018-03-20T09:42:07.427Z,3.30
2018-03-20T09:44:39.334Z,3.30
2018-03-20T09:47:11.219Z,3.20
2018-03-20T09:49:43.855Z,3.20
2018-03-20T09:52:15.750Z,3.20
2018-03-20T09:54:48.387Z,3.40
2018-03-20T09:57:20.275Z,3.40
2018-03-20T09:59:52.148Z,3.50
2018-03-20T10:02:24.827Z,3.60
2018-03-20T10:04:57.458Z,3.60
2018-03-20T10:07:29.347Z,3.60
2018-03-20T10:10:01.224Z,3.60
2018-03-20T10:12:33.863Z,3.80
2018-03-20T10:15:05.763Z,3.80
2018-03-20T10:17:38.417Z,4.00
2018-03-20T10:20:10.306Z,4.00
2018-03-20T10:22:42.948Z,4.20
2018-03-20T10:25:14.827Z,4.20
2018-03-20T10:27:46.712Z,4.30
2018-03-20T10:30:19.351Z,4.20
2018-03-20T10:32:51.357Z,4.10
2018-03-20T10:35:23.277Z,4.30
2018-03-20T10:37:55.112Z,4.30
2018-03-20T10:40:27.243Z,4.30
2018-03-20T10:42:59.131Z,4.40
2018-03-20T10:45:31.049Z,4.50
2018-03-20T10:48:03.696Z,4.60
2018-03-20T10:50:35.566Z,4.60
2018-03-20T10:53:07.451Z,4.60
2018-03-20T10:55:40.163Z,4.70
2018-03-20T10:58:12.047Z,4.70
2018-03-20T11:00:43.929Z,4.90
2018-03-20T11:03:15.819Z,5.00
2018-03-20T11:05:48.466Z,5.10
2018-03-20T11:08:20.339Z,5.00
2018-03-20T11:10:53.244Z,5.10
2018-03-20T11:13:25.123Z,5.10
2018-03-20T11:15:56.990Z,5.10
2018-03-20T11:18:29.127Z,5.20
2018-03-20T11:21:01.016Z,5.20
2018-03-20T11:23:32.892Z,5.20
2018-03-20T11:26:04.764Z,5.30
2018-03-20T11:28:36.872Z,5.40
2018-03-20T11:31:08.739Z,5.50
2018-03-20T11:33:40.631Z,5.60
2018-03-20T11:36:12.499Z,5.60
2018-03-20T11:38:44.622Z,5.70
2018-03-20T11:41:16.750Z,5.70
2018-03-20T11:43:50.340Z,5.70
2018-03-20T11:46:22.164Z,5.60
2018-03-20T11:48:54.046Z,5.70
2018-03-20T11:51:25.956Z,5.80
2018-03-20T11:53:58.621Z,5.80
2018-03-20T11:56:30.816Z,5.80
2018-03-20T11:59:02.725Z,5.90
2018-03-20T12:01:34.842Z,5.80
2018-03-20T12:04:06.735Z,5.90
2018-03-20T12:06:38.661Z,6.00
2018-03-20T12:12:15.086Z,6.00
2018-03-20T12:14:46.963Z,6.00
2018-03-20T12:17:18.848Z,6.10
2018-03-20T12:19:51.521Z,6.30
2018-03-20T12:22:23.375Z,6.20
2018-03-20T12:24:55.267Z,6.30
2018-03-20T12:27:27.159Z,6.30
2018-03-20T12:29:59.039Z,6.40
2018-03-20T12:32:30.912Z,6.40
2018-03-20T12:35:02.798Z,6.40
2018-03-20T12:37:35.427Z,6.50
2018-03-20T12:40:07.445Z,6.50
2018-03-20T12:42:39.317Z,6.70
2018-03-20T12:45:11.200Z,6.70
2018-03-20T12:47:43.067Z,6.60
2018-03-20T12:50:15.717Z,6.70
2018-03-20T12:52:47.584Z,6.70
2018-03-20T12:55:19.467Z,6.80
2018-03-20T12:57:51.332Z,6.90
2018-03-20T13:00:23.212Z,7.00
2018-03-20T13:02:55.079Z,7.00
2018-03-20T13:05:26.984Z,7.00
2018-03-20T13:07:58.969Z,7.00
2018-03-20T13:10:30.815Z,7.00
2018-03-20T13:13:02.699Z,7.00
2018-03-20T13:15:34.604Z,6.90
2018-03-20T13:18:06.771Z,7.00
2018-03-20T13:20:38.647Z,7.10
2018-03-20T13:23:10.591Z,7.10
2018-03-20T13:25:42.445Z,7.20
2018-03-20T13:28:15.126Z,7.30
2018-03-20T13:30:47.195Z,7.30
2018-03-20T13:33:19.073Z,7.30
2018-03-20T13:35:50.944Z,7.20
2018-03-20T13:38:22.821Z,7.30
2018-03-20T13:40:54.703Z,7.30
2018-03-20T13:43:26.571Z,7.40
2018-03-20T13:45:58.455Z,7.40
2018-03-20T13:48:30.322Z,7.50
2018-03-20T13:51:02.212Z,7.50
2018-03-20T13:53:34.079Z,7.50
2018-03-20T13:56:05.996Z,7.50
2018-03-20T13:58:37.917Z,7.50
2018-03-20T14:01:09.752Z,7.50
2018-03-20T14:03:41.619Z,7.50
2018-03-20T14:06:13.502Z,7.60
2018-03-20T14:08:45.376Z,7.60
2018-03-20T14:11:18.280Z,7.60
2018-03-20T14:13:50.153Z,7.50
2018-03-20T14:16:22.089Z,7.60
2018-03-20T14:18:53.907Z,7.60
2018-03-20T14:21:26.555Z,7.70
2018-03-20T14:23:58.420Z,7.70
2018-03-20T14:26:30.301Z,7.70
2018-03-20T14:29:02.170Z,7.70
2018-03-20T14:31:34.047Z,7.70
2018-03-20T14:34:06.142Z,7.60
2018-03-20T14:36:38.075Z,7.60
2018-03-20T14:39:09.940Z,7.60
2018-03-20T14:41:42.584Z,7.70
2018-03-20T14:44:15.230Z,7.70
2018-03-20T14:46:47.328Z,7.70
2018-03-20T14:49:19.374Z,7.70
2018-03-20T14:51:51.309Z,7.70
2018-03-20T14:54:23.947Z,7.60
2018-03-20T14:56:55.824Z,7.60
2018-03-20T14:59:28.483Z,7.70
2018-03-20T15:02:00.359Z,7.60
2018-03-20T15:04:32.236Z,7.70
2018-03-20T15:07:05.127Z,7.70
2018-03-20T15:09:36.995Z,7.70
2018-03-20T15:12:08.878Z,7.70
2018-03-20T15:14:40.804Z,7.70
2018-03-20T15:17:13.462Z,7.80
2018-03-20T15:19:45.325Z,7.80
2018-03-20T15:22:17.991Z,7.80
2018-03-20T15:24:49.863Z,7.80
2018-03-20T15:27:22.522Z,7.70
2018-03-20T15:29:54.398Z,7.70
2018-03-20T15:32:26.592Z,7.70
2018-03-20T15:34:58.460Z,7.60
2018-03-20T15:37:30.339Z,7.60
2018-03-20T15:40:02.204Z,7.50
2018-03-20T15:42:34.109Z,7.50
2018-03-20T15:45:05.979Z,7.60
2018-03-20T15:47:38.623Z,7.50
2018-03-20T15:50:10.503Z,7.50
2018-03-20T15:52:43.166Z,7.50
2018-03-20T15:55:15.027Z,7.60
2018-03-20T15:57:46.913Z,7.50
2018-03-20T16:00:19.554Z,7.50
2018-03-20T16:02:51.440Z,7.50
2018-03-20T16:05:23.636Z,7.50
2018-03-20T16:07:55.520Z,7.50
2018-03-20T16:10:27.415Z,7.50
2018-03-20T16:12:59.295Z,7.50
2018-03-20T16:15:31.927Z,7.40
2018-03-20T16:18:03.817Z,7.40
2018-03-20T16:20:35.683Z,7.40
2018-03-20T16:23:07.575Z,7.40
2018-03-20T16:25:39.740Z,7.40
2018-03-20T16:28:11.624Z,7.30
2018-03-20T16:30:43.494Z,7.30
2018-03-20T16:33:15.367Z,7.30
2018-03-20T16:35:47.484Z,7.30
2018-03-20T16:38:19.380Z,7.20
2018-03-20T16:40:51.247Z,7.20
2018-03-20T16:43:23.132Z,7.20
2018-03-20T16:45:55.002Z,7.20
2018-03-20T16:48:27.651Z,7.20
2018-03-20T16:50:59.519Z,7.10
2018-03-20T16:53:32.329Z,7.20
2018-03-20T16:56:04.407Z,7.10
2018-03-20T16:58:36.353Z,7.10
2018-03-20T17:01:08.535Z,7.00
2018-03-20T17:03:40.643Z,7.00
2018-03-20T17:06:12.504Z,7.00
2018-03-20T17:08:44.388Z,7.00
2018-03-20T17:11:16.287Z,7.00
2018-03-20T17:13:48.175Z,6.90
2018-03-20T17:16:20.515Z,6.90
2018-03-20T17:18:52.403Z,6.80
2018-03-20T17:21:24.267Z,6.80
2018-03-20T17:23:56.399Z,6.80
2018-03-20T17:26:28.272Z,6.70
2018-03-20T17:29:00.165Z,6.70
2018-03-20T17:31:32.028Z,6.60
2018-03-20T17:34:04.248Z,6.60
2018-03-20T17:36:36.115Z,6.50
2018-03-20T17:39:07.995Z,6.50
2018-03-20T17:41:39.863Z,6.50
2018-03-20T17:44:11.992Z,6.40
2018-03-20T17:46:43.871Z,6.40
2018-03-20T17:49:15.755Z,6.40
2018-03-20T17:51:47.631Z,6.30
2018-03-20T17:54:19.511Z,6.30
2018-03-20T17:56:52.163Z,6.20
2018-03-20T17:59:24.047Z,6.20
2018-03-20T18:01:55.919Z,6.10
2018-03-20T18:04:28.563Z,6.10
2018-03-20T18:07:00.440Z,6.10
2018-03-20T18:09:32.327Z,6.10
2018-03-20T18:12:04.951Z,5.90
2018-03-20T18:14:37.073Z,5.90
2018-03-20T18:17:08.963Z,5.90
2018-03-20T18:19:40.829Z,5.80
2018-03-20T18:22:12.755Z,5.80
2018-03-20T18:24:44.921Z,5.70
2018-03-20T18:27:16.791Z,5.70
2018-03-20T18:29:48.680Z,5.70
2018-03-20T18:32:20.560Z,5.60
2018-03-20T18:34:52.499Z,5.50
2018-03-20T18:37:24.368Z,5.50
2018-03-20T18:39:56.352Z,5.50
2018-03-20T18:42:28.215Z,5.40
2018-03-20T18:45:00.115Z,5.40
2018-03-20T18:47:31.983Z,5.40
2018-03-20T18:50:03.871Z,5.30
2018-03-20T18:52:35.747Z,5.30
2018-03-20T18:55:07.627Z,5.30
2018-03-20T18:57:40.255Z,5.20
2018-03-20T19:00:12.159Z,5.10
2018-03-20T19:02:44.907Z,5.10
2018-03-20T19:05:16.867Z,5.10
2018-03-20T19:07:48.735Z,5.00
2018-03-20T19:10:20.684Z,5.00
2018-03-20T19:12:52.559Z,5.00
2018-03-20T19:15:24.516Z,4.90
2018-03-20T19:17:56.475Z,4.90
2018-03-20T19:20:28.742Z,4.90
2018-03-20T19:23:00.629Z,4.90
2018-03-20T19:25:32.538Z,4.90
2018-03-20T19:28:05.403Z,4.80
2018-03-20T19:30:37.314Z,4.80
2018-03-20T19:33:09.193Z,4.80
2018-03-20T19:35:43.232Z,4.70
2018-03-20T19:38:15.139Z,4.70
2018-03-20T19:40:47.102Z,4.60
2018-03-20T19:43:19.062Z,4.60
2018-03-20T19:45:51.057Z,4.50
2018-03-20T19:48:23.555Z,4.40
2018-03-20T19:50:55.846Z,4.40
2018-03-20T19:53:29.839Z,4.30
2018-03-20T19:56:01.916Z,4.30
2018-03-20T19:58:33.944Z,4.20
2018-03-20T20:01:05.937Z,4.10
2018-03-20T20:03:37.952Z,4.10
2018-03-20T20:06:09.976Z,4.10
2018-03-20T20:08:41.970Z,4.10
2018-03-20T20:11:14.081Z,4.10
2018-03-20T20:13:46.125Z,4.10
2018-03-20T20:16:19.179Z,4.00
2018-03-20T20:18:51.435Z,4.00
2018-03-20T20:21:24.589Z,4.00
2018-03-20T20:23:56.819Z,4.00
2018-03-20T20:26:28.757Z,4.00
2018-03-20T20:29:00.887Z,3.90
2018-03-20T20:31:32.766Z,3.90
2018-03-20T20:34:04.635Z,3.80
2018-03-20T20:36:36.519Z,3.80
2018-03-20T20:39:08.631Z,3.70
2018-03-20T20:41:40.510Z,3.70
2018-03-20T20:44:12.656Z,3.70
2018-03-20T20:46:44.568Z,3.60
2018-03-20T20:49:16.544Z,3.60
2018-03-20T20:51:48.569Z,3.60
2018-03-20T20:54:20.455Z,3.60
2018-03-20T20:56:52.339Z,3.60
2018-03-20T20:59:24.205Z,3.60
2018-03-20T21:01:56.858Z,3.50
2018-03-20T21:04:28.723Z,3.50
2018-03-20T21:07:00.608Z,3.50
2018-03-20T21:09:33.243Z,3.50
2018-03-20T21:12:05.367Z,3.50
2018-03-20T21:14:37.235Z,3.50
2018-03-20T21:17:09.115Z,3.40
2018-03-20T21:19:40.987Z,3.40
2018-03-20T21:22:12.871Z,3.40
2018-03-20T21:24:44.744Z,3.30
2018-03-20T21:27:16.728Z,3.30
2018-03-20T21:29:49.355Z,3.20
2018-03-20T21:32:21.251Z,3.20
2018-03-20T21:34:53.897Z,3.20
